Impacts METAR Board
IDs:

KLAS - Las Vegas/McCarran I, NV, US

Updated at: 0000 UTC 23 Mar 2019
Potential Impact None Slight Moderate High
Time 22/12Z 22/13Z 22/14Z 22/15Z 22/16Z 22/17Z 22/18Z 22/19Z 22/20Z 22/21Z 22/22Z 22/23Z 23/00Z
Temp48 48 48 51 55 57 60 63 65 68 68 69 68
Dewpt37 36 36 37 36 36 36 35 31 32 34 31 31
Altim29.99 30.00 30.02 30.04 30.06 30.06 30.06 30.05 30.04 30.03 30.01 30.00 30.00
VIS10 10 10 10 10 10 10 10 10 10 10 10 10
CIG-- -- -- -- -- -- -- -- -- -- -- -- --
CoverSCTSCTFEWFEWFEWFEWFEWFEWFEWFEWFEWFEWFEW
FltCatVFRVFRVFRVFRVFRVFRVFRVFRVFRVFRVFRVFRVFR
WX--------------------------
WDir200180210200190170140190001700260
WSpd4 5 4 5 6 5 8 5 3 0 6 0 6
WGst-- -- -- -- -- -- -- -- -- -- -- -- --
Raw hourly METARs
KLAS 221156Z 20004KT 10SM FEW120 SCT250 09/03 A2999 RMK AO2 SLP150 T00890028 10122 20089 53002
KLAS 221256Z 18005KT 10SM FEW120 SCT250 09/02 A3000 RMK AO2 SLP153 T00890022
KLAS 221356Z 21004KT 10SM FEW120 FEW200 09/02 A3002 RMK AO2 SLP160 T00890022
KLAS 221456Z 20005KT 10SM FEW120 FEW200 11/03 A3004 RMK AO2 SLP168 T01060028 53016
KLAS 221556Z 19006KT 10SM FEW120 FEW200 13/02 A3006 RMK AO2 SLP172 T01280022
KLAS 221656Z 17005KT 10SM FEW100 FEW250 14/02 A3006 RMK AO2 SLP173 T01390022
KLAS 221756Z 14008KT 10SM FEW100 FEW250 16/02 A3006 RMK AO2 SLP172 T01560022 10156 20083 50005
KLAS 221856Z 19005KT 10SM FEW100 FEW250 17/02 A3005 RMK AO2 SLP169 T01720017
KLAS 221956Z VRB03KT 10SM FEW100 FEW250 18/M01 A3004 RMK AO2 SLP163 T01831006
KLAS 222056Z 00000KT 10SM FEW080 FEW250 20/00 A3003 RMK AO2 SLP159 T02000000 58009
KLAS 222156Z 17006KT 10SM FEW080 FEW250 20/01 A3001 RMK AO2 SLP154 T02000011
KLAS 222256Z 00000KT 10SM FEW080 FEW250 21/M01 A3000 RMK AO2 SLP151 T02061006
KLAS 222356Z 26006KT 10SM FEW085 FEW250 20/M01 A3000 RMK AO2 SLP149 T02001006 10206 20150 56010



Page loaded:  00:29 UTC  |   05:29 PM Pacific  |   06:29 PM Mountain  |   07:29 PM Central  |   08:29 PM Eastern

 

ADVISORIES

FORECASTS

FORECASTS

OBSERVATIONS

USER TOOLS

ABOUT US